CheckWX is a tool to help pilots better visualize weather data.  It is not intended as a substitute for an official pre-flight weather briefing.

01:51:09 UTC

MMLT TAF
Loreto International Airport
Loreto, Mexico
TAF MMLT 181653Z 1818/1918 04010KT P6SM SKC BECMG 1902/1903 00000KT FM191500 08010KT P6SM SKC

Mar-18@
18:00 UTC

Mar-18 @ 18:00 UTC

Mar-19@
02:00 UTC

Mar-19 @ 02:00 UTC

TAF MMLT 181653Z 1818/1918 04010KT P6SM SKC
Wind
  • 040° at 10 KTS
Cloud Levels
  • Clear skies

Mar-19@
02:00 UTC

Mar-19 @ 02:00 UTC

Mar-19@
15:00 UTC

Mar-19 @ 15:00 UTC

BECMG 1902/1903 00000KT

Becoming

Becoming Conditions expected by Tue, Mar 19, 2019 @ 03:00 UTC

Cloud Levels
  • Clear skies

Mar-19@
15:00 UTC

Mar-19 @ 15:00 UTC

Mar-19@
18:00 UTC

Mar-19 @ 18:00 UTC

FM191500 08010KT P6SM SKC

From

From Standard forecast or significant change

Wind
  • 080° at 10 KTS
Cloud Levels
  • Clear skies